sensor_id;sensor_type;location;lat;lon;timestamp;P1;durP1;ratioP1;P2;durP2;ratioP2
78916;SDS011;68315;48.608;11.436;2024-01-25T00:01:25;13.02;;;2.97;;
78916;SDS011;68315;48.608;11.436;2024-01-25T00:03:50;12.23;;;2.80;;
78916;SDS011;68315;48.608;11.436;2024-01-25T00:06:16;17.42;;;3.20;;
78916;SDS011;68315;48.608;11.436;2024-01-25T00:08:41;16.52;;;2.97;;
78916;SDS011;68315;48.608;11.436;2024-01-25T00:11:06;14.68;;;3.50;;
78916;SDS011;68315;48.608;11.436;2024-01-25T00:13:32;17.13;;;3.72;;
78916;SDS011;68315;48.608;11.436;2024-01-25T00:15:57;16.38;;;2.85;;
78916;SDS011;68315;48.608;11.436;2024-01-25T00:18:22;16.35;;;3.42;;
78916;SDS011;68315;48.608;11.436;2024-01-25T00:20:48;18.40;;;3.20;;
78916;SDS011;68315;48.608;11.436;2024-01-25T00:23:13;15.57;;;3.20;;
78916;SDS011;68315;48.608;11.436;2024-01-25T00:25:38;18.05;;;3.70;;
78916;SDS011;68315;48.608;11.436;2024-01-25T00:28:03;10.48;;;2.92;;
78916;SDS011;68315;48.608;11.436;2024-01-25T00:30:29;15.38;;;3.50;;
78916;SDS011;68315;48.608;11.436;2024-01-25T00:32:54;14.45;;;3.10;;
78916;SDS011;68315;48.608;11.436;2024-01-25T00:35:20;13.88;;;3.10;;
78916;SDS011;68315;48.608;11.436;2024-01-25T00:37:46;12.65;;;3.42;;
78916;SDS011;68315;48.608;11.436;2024-01-25T00:40:11;16.55;;;3.08;;
78916;SDS011;68315;48.608;11.436;2024-01-25T00:42:42;13.75;;;2.80;;
78916;SDS011;68315;48.608;11.436;2024-01-25T00:45:09;16.63;;;3.40;;
78916;SDS011;68315;48.608;11.436;2024-01-25T00:47:35;15.25;;;3.00;;
78916;SDS011;68315;48.608;11.436;2024-01-25T00:50:01;18.23;;;3.63;;
78916;SDS011;68315;48.608;11.436;2024-01-25T00:52:27;13.10;;;3.70;;
78916;SDS011;68315;48.608;11.436;2024-01-25T00:54:52;16.80;;;3.05;;
78916;SDS011;68315;48.608;11.436;2024-01-25T00:57:18;16.35;;;3.33;;
78916;SDS011;68315;48.608;11.436;2024-01-25T00:59:43;16.23;;;2.97;;
78916;SDS011;68315;48.608;11.436;2024-01-25T01:02:10;13.65;;;3.00;;
78916;SDS011;68315;48.608;11.436;2024-01-25T01:04:37;13.40;;;3.72;;
78916;SDS011;68315;48.608;11.436;2024-01-25T01:07:03;13.95;;;3.10;;
78916;SDS011;68315;48.608;11.436;2024-01-25T01:09:29;11.77;;;3.17;;
78916;SDS011;68315;48.608;11.436;2024-01-25T01:11:54;12.27;;;2.70;;
78916;SDS011;68315;48.608;11.436;2024-01-25T01:14:19;17.10;;;2.65;;
78916;SDS011;68315;48.608;11.436;2024-01-25T01:16:45;17.08;;;3.22;;
78916;SDS011;68315;48.608;11.436;2024-01-25T01:19:10;14.20;;;2.75;;
78916;SDS011;68315;48.608;11.436;2024-01-25T01:21:35;13.75;;;3.40;;
78916;SDS011;68315;48.608;11.436;2024-01-25T01:24:01;19.13;;;3.47;;
78916;SDS011;68315;48.608;11.436;2024-01-25T01:26:26;13.73;;;3.28;;
78916;SDS011;68315;48.608;11.436;2024-01-25T01:28:52;17.73;;;3.60;;
78916;SDS011;68315;48.608;11.436;2024-01-25T01:31:17;21.63;;;3.50;;
78916;SDS011;68315;48.608;11.436;2024-01-25T01:33:42;19.60;;;3.17;;
78916;SDS011;68315;48.608;11.436;2024-01-25T01:36:07;14.48;;;2.92;;
78916;SDS011;68315;48.608;11.436;2024-01-25T01:38:32;11.10;;;2.85;;
78916;SDS011;68315;48.608;11.436;2024-01-25T01:40:58;15.90;;;3.83;;
78916;SDS011;68315;48.608;11.436;2024-01-25T01:43:23;12.02;;;3.75;;
78916;SDS011;68315;48.608;11.436;2024-01-25T01:45:48;16.20;;;3.50;;
78916;SDS011;68315;48.608;11.436;2024-01-25T01:48:14;10.32;;;3.00;;
78916;SDS011;68315;48.608;11.436;2024-01-25T01:50:40;13.40;;;3.22;;
78916;SDS011;68315;48.608;11.436;2024-01-25T01:53:07;18.08;;;4.07;;
78916;SDS011;68315;48.608;11.436;2024-01-25T01:55:32;14.32;;;3.60;;
78916;SDS011;68315;48.608;11.436;2024-01-25T01:57:58;16.20;;;3.15;;
78916;SDS011;68315;48.608;11.436;2024-01-25T02:00:24;17.02;;;2.92;;
78916;SDS011;68315;48.608;11.436;2024-01-25T02:02:50;13.27;;;2.83;;
78916;SDS011;68315;48.608;11.436;2024-01-25T02:05:15;12.48;;;2.90;;
78916;SDS011;68315;48.608;11.436;2024-01-25T02:07:41;20.42;;;3.72;;
78916;SDS011;68315;48.608;11.436;2024-01-25T02:10:07;15.30;;;2.90;;
78916;SDS011;68315;48.608;11.436;2024-01-25T02:12:33;12.88;;;2.90;;
78916;SDS011;68315;48.608;11.436;2024-01-25T02:14:58;19.45;;;3.35;;
78916;SDS011;68315;48.608;11.436;2024-01-25T02:17:23;14.00;;;3.00;;
78916;SDS011;68315;48.608;11.436;2024-01-25T02:19:49;14.00;;;2.83;;
78916;SDS011;68315;48.608;11.436;2024-01-25T02:22:16;12.40;;;3.28;;
78916;SDS011;68315;48.608;11.436;2024-01-25T02:24:42;16.35;;;3.45;;
78916;SDS011;68315;48.608;11.436;2024-01-25T02:27:07;13.77;;;3.25;;
78916;SDS011;68315;48.608;11.436;2024-01-25T02:29:33;13.38;;;3.50;;
78916;SDS011;68315;48.608;11.436;2024-01-25T02:31:58;18.25;;;3.33;;
78916;SDS011;68315;48.608;11.436;2024-01-25T02:34:23;18.65;;;4.18;;
78916;SDS011;68315;48.608;11.436;2024-01-25T02:36:48;9.80;;;3.22;;
78916;SDS011;68315;48.608;11.436;2024-01-25T02:39:14;16.00;;;3.88;;
78916;SDS011;68315;48.608;11.436;2024-01-25T02:41:39;14.70;;;3.83;;
78916;SDS011;68315;48.608;11.436;2024-01-25T02:44:04;16.45;;;3.33;;
78916;SDS011;68315;48.608;11.436;2024-01-25T02:46:29;16.50;;;3.92;;
78916;SDS011;68315;48.608;11.436;2024-01-25T02:48:55;14.00;;;3.00;;
78916;SDS011;68315;48.608;11.436;2024-01-25T02:51:20;15.52;;;2.92;;
78916;SDS011;68315;48.608;11.436;2024-01-25T02:53:45;15.23;;;3.50;;
78916;SDS011;68315;48.608;11.436;2024-01-25T02:56:10;23.90;;;3.38;;
78916;SDS011;68315;48.608;11.436;2024-01-25T02:58:35;16.45;;;2.97;;
78916;SDS011;68315;48.608;11.436;2024-01-25T03:01:01;17.52;;;3.45;;
78916;SDS011;68315;48.608;11.436;2024-01-25T03:03:26;15.07;;;3.13;;
78916;SDS011;68315;48.608;11.436;2024-01-25T03:05:51;16.55;;;3.22;;
78916;SDS011;68315;48.608;11.436;2024-01-25T03:08:17;20.92;;;3.20;;
78916;SDS011;68315;48.608;11.436;2024-01-25T03:10:42;19.58;;;3.65;;
78916;SDS011;68315;48.608;11.436;2024-01-25T03:13:07;22.08;;;4.57;;
78916;SDS011;68315;48.608;11.436;2024-01-25T03:15:32;23.38;;;3.63;;
78916;SDS011;68315;48.608;11.436;2024-01-25T03:17:58;16.00;;;3.45;;
78916;SDS011;68315;48.608;11.436;2024-01-25T03:20:23;16.05;;;3.28;;
78916;SDS011;68315;48.608;11.436;2024-01-25T03:22:48;13.40;;;3.15;;
78916;SDS011;68315;48.608;11.436;2024-01-25T03:25:14;17.33;;;3.58;;
78916;SDS011;68315;48.608;11.436;2024-01-25T03:27:39;18.98;;;4.28;;
78916;SDS011;68315;48.608;11.436;2024-01-25T03:30:04;20.48;;;2.90;;
78916;SDS011;68315;48.608;11.436;2024-01-25T03:32:31;15.80;;;2.97;;
78916;SDS011;68315;48.608;11.436;2024-01-25T03:34:56;11.68;;;3.90;;
78916;SDS011;68315;48.608;11.436;2024-01-25T03:37:21;16.23;;;3.22;;
78916;SDS011;68315;48.608;11.436;2024-01-25T03:39:46;15.88;;;3.30;;
78916;SDS011;68315;48.608;11.436;2024-01-25T03:42:12;13.40;;;2.83;;
78916;SDS011;68315;48.608;11.436;2024-01-25T03:44:37;15.68;;;3.13;;
78916;SDS011;68315;48.608;11.436;2024-01-25T03:47:02;12.30;;;2.85;;
78916;SDS011;68315;48.608;11.436;2024-01-25T03:49:27;11.50;;;2.55;;
78916;SDS011;68315;48.608;11.436;2024-01-25T03:51:52;15.32;;;2.85;;
78916;SDS011;68315;48.608;11.436;2024-01-25T03:54:18;18.52;;;3.00;;
78916;SDS011;68315;48.608;11.436;2024-01-25T03:56:43;12.70;;;2.70;;
78916;SDS011;68315;48.608;11.436;2024-01-25T03:59:08;14.55;;;3.03;;
78916;SDS011;68315;48.608;11.436;2024-01-25T04:01:45;12.13;;;3.13;;
78916;SDS011;68315;48.608;11.436;2024-01-25T04:04:12;15.20;;;3.28;;
78916;SDS011;68315;48.608;11.436;2024-01-25T04:06:40;13.55;;;3.00;;
78916;SDS011;68315;48.608;11.436;2024-01-25T04:09:06;15.65;;;4.03;;
78916;SDS011;68315;48.608;11.436;2024-01-25T04:11:32;16.73;;;3.25;;
78916;SDS011;68315;48.608;11.436;2024-01-25T04:13:57;10.40;;;3.42;;
78916;SDS011;68315;48.608;11.436;2024-01-25T04:16:24;134.00;;;46.63;;
78916;SDS011;68315;48.608;11.436;2024-01-25T04:18:51;62.53;;;22.42;;
78916;SDS011;68315;48.608;11.436;2024-01-25T04:21:16;61.65;;;21.73;;
78916;SDS011;68315;48.608;11.436;2024-01-25T04:23:41;388.52;;;132.55;;
78916;SDS011;68315;48.608;11.436;2024-01-25T04:26:07;465.98;;;158.15;;
78916;SDS011;68315;48.608;11.436;2024-01-25T04:28:32;279.65;;;82.32;;
78916;SDS011;68315;48.608;11.436;2024-01-25T04:30:57;127.35;;;40.25;;
78916;SDS011;68315;48.608;11.436;2024-01-25T04:33:22;109.50;;;36.03;;
78916;SDS011;68315;48.608;11.436;2024-01-25T04:35:48;65.45;;;20.42;;
78916;SDS011;68315;48.608;11.436;2024-01-25T04:38:13;234.63;;;71.50;;
78916;SDS011;68315;48.608;11.436;2024-01-25T04:40:38;341.85;;;116.93;;
78916;SDS011;68315;48.608;11.436;2024-01-25T04:43:03;226.88;;;78.20;;
78916;SDS011;68315;48.608;11.436;2024-01-25T04:45:28;96.82;;;34.97;;
78916;SDS011;68315;48.608;11.436;2024-01-25T04:47:54;68.30;;;21.85;;
78916;SDS011;68315;48.608;11.436;2024-01-25T04:50:19;120.22;;;47.25;;
78916;SDS011;68315;48.608;11.436;2024-01-25T04:52:44;81.60;;;31.55;;
78916;SDS011;68315;48.608;11.436;2024-01-25T04:55:10;78.28;;;28.67;;
78916;SDS011;68315;48.608;11.436;2024-01-25T04:57:35;36.00;;;12.93;;
78916;SDS011;68315;48.608;11.436;2024-01-25T05:00:00;90.75;;;32.42;;
78916;SDS011;68315;48.608;11.436;2024-01-25T05:02:25;87.57;;;33.38;;
78916;SDS011;68315;48.608;11.436;2024-01-25T05:04:51;55.72;;;21.52;;
78916;SDS011;68315;48.608;11.436;2024-01-25T05:07:16;26.15;;;7.90;;
78916;SDS011;68315;48.608;11.436;2024-01-25T05:09:41;48.25;;;18.70;;
78916;SDS011;68315;48.608;11.436;2024-01-25T05:12:06;129.82;;;52.15;;
78916;SDS011;68315;48.608;11.436;2024-01-25T05:14:32;58.72;;;24.15;;
78916;SDS011;68315;48.608;11.436;2024-01-25T05:16:57;36.47;;;11.38;;
78916;SDS011;68315;48.608;11.436;2024-01-25T05:19:22;33.47;;;13.55;;
78916;SDS011;68315;48.608;11.436;2024-01-25T05:21:47;34.85;;;11.45;;
78916;SDS011;68315;48.608;11.436;2024-01-25T05:24:12;41.42;;;16.83;;
78916;SDS011;68315;48.608;11.436;2024-01-25T05:26:38;27.13;;;11.60;;
78916;SDS011;68315;48.608;11.436;2024-01-25T05:29:04;25.38;;;8.25;;
78916;SDS011;68315;48.608;11.436;2024-01-25T05:31:29;57.38;;;25.83;;
78916;SDS011;68315;48.608;11.436;2024-01-25T05:33:54;28.17;;;11.38;;
78916;SDS011;68315;48.608;11.436;2024-01-25T05:36:19;33.78;;;14.70;;
78916;SDS011;68315;48.608;11.436;2024-01-25T05:38:45;44.05;;;19.27;;
78916;SDS011;68315;48.608;11.436;2024-01-25T05:41:10;25.92;;;11.68;;
78916;SDS011;68315;48.608;11.436;2024-01-25T05:43:35;24.02;;;9.05;;
78916;SDS011;68315;48.608;11.436;2024-01-25T05:46:01;19.60;;;9.88;;
78916;SDS011;68315;48.608;11.436;2024-01-25T05:48:26;16.88;;;5.93;;
78916;SDS011;68315;48.608;11.436;2024-01-25T05:50:51;15.50;;;6.25;;
78916;SDS011;68315;48.608;11.436;2024-01-25T05:53:16;17.08;;;5.43;;
78916;SDS011;68315;48.608;11.436;2024-01-25T05:55:44;19.88;;;5.65;;
78916;SDS011;68315;48.608;11.436;2024-01-25T05:58:10;23.73;;;8.50;;
78916;SDS011;68315;48.608;11.436;2024-01-25T06:00:35;20.73;;;6.40;;
78916;SDS011;68315;48.608;11.436;2024-01-25T06:03:00;25.92;;;9.10;;
78916;SDS011;68315;48.608;11.436;2024-01-25T06:05:25;57.45;;;28.33;;
78916;SDS011;68315;48.608;11.436;2024-01-25T06:07:50;35.25;;;14.15;;
78916;SDS011;68315;48.608;11.436;2024-01-25T06:10:16;33.65;;;15.60;;
78916;SDS011;68315;48.608;11.436;2024-01-25T06:12:41;16.20;;;6.18;;
78916;SDS011;68315;48.608;11.436;2024-01-25T06:15:06;15.70;;;5.78;;
78916;SDS011;68315;48.608;11.436;2024-01-25T06:17:32;27.45;;;11.35;;
78916;SDS011;68315;48.608;11.436;2024-01-25T06:19:57;13.07;;;4.05;;
78916;SDS011;68315;48.608;11.436;2024-01-25T06:22:22;19.27;;;6.20;;
78916;SDS011;68315;48.608;11.436;2024-01-25T06:24:47;25.58;;;11.48;;
78916;SDS011;68315;48.608;11.436;2024-01-25T06:27:13;20.38;;;10.57;;
78916;SDS011;68315;48.608;11.436;2024-01-25T06:29:38;27.65;;;11.73;;
78916;SDS011;68315;48.608;11.436;2024-01-25T06:32:04;18.38;;;5.50;;
78916;SDS011;68315;48.608;11.436;2024-01-25T06:34:29;20.27;;;5.25;;
78916;SDS011;68315;48.608;11.436;2024-01-25T06:36:54;17.88;;;4.57;;
78916;SDS011;68315;48.608;11.436;2024-01-25T06:39:20;17.58;;;4.13;;
78916;SDS011;68315;48.608;11.436;2024-01-25T06:41:45;18.73;;;5.32;;
78916;SDS011;68315;48.608;11.436;2024-01-25T06:44:10;17.33;;;4.07;;
78916;SDS011;68315;48.608;11.436;2024-01-25T06:46:35;17.73;;;4.38;;
78916;SDS011;68315;48.608;11.436;2024-01-25T06:49:01;16.88;;;4.53;;
78916;SDS011;68315;48.608;11.436;2024-01-25T06:51:26;13.40;;;4.55;;
78916;SDS011;68315;48.608;11.436;2024-01-25T06:53:51;18.95;;;4.90;;
78916;SDS011;68315;48.608;11.436;2024-01-25T06:56:16;18.02;;;4.10;;
78916;SDS011;68315;48.608;11.436;2024-01-25T06:58:42;18.67;;;4.40;;
78916;SDS011;68315;48.608;11.436;2024-01-25T07:01:07;15.15;;;3.95;;
78916;SDS011;68315;48.608;11.436;2024-01-25T07:03:32;15.45;;;4.03;;
78916;SDS011;68315;48.608;11.436;2024-01-25T07:05:57;18.17;;;4.57;;
78916;SDS011;68315;48.608;11.436;2024-01-25T07:08:22;19.02;;;4.38;;
78916;SDS011;68315;48.608;11.436;2024-01-25T07:10:49;18.88;;;6.20;;
78916;SDS011;68315;48.608;11.436;2024-01-25T07:13:14;14.80;;;5.57;;
78916;SDS011;68315;48.608;11.436;2024-01-25T07:15:39;18.27;;;4.38;;
78916;SDS011;68315;48.608;11.436;2024-01-25T07:18:04;15.50;;;3.60;;
78916;SDS011;68315;48.608;11.436;2024-01-25T07:20:30;17.50;;;3.95;;
78916;SDS011;68315;48.608;11.436;2024-01-25T07:22:56;20.80;;;3.70;;
78916;SDS011;68315;48.608;11.436;2024-01-25T07:25:21;13.48;;;3.38;;
78916;SDS011;68315;48.608;11.436;2024-01-25T07:27:46;15.73;;;3.40;;
78916;SDS011;68315;48.608;11.436;2024-01-25T07:30:12;16.27;;;3.80;;
78916;SDS011;68315;48.608;11.436;2024-01-25T07:32:38;13.13;;;3.03;;
78916;SDS011;68315;48.608;11.436;2024-01-25T07:35:06;16.80;;;3.60;;
78916;SDS011;68315;48.608;11.436;2024-01-25T07:37:31;15.85;;;3.40;;
78916;SDS011;68315;48.608;11.436;2024-01-25T07:39:57;18.00;;;3.92;;
78916;SDS011;68315;48.608;11.436;2024-01-25T07:42:22;18.60;;;3.55;;
78916;SDS011;68315;48.608;11.436;2024-01-25T07:44:47;17.77;;;3.75;;
78916;SDS011;68315;48.608;11.436;2024-01-25T07:47:12;18.42;;;4.25;;
78916;SDS011;68315;48.608;11.436;2024-01-25T07:49:40;15.85;;;3.97;;
78916;SDS011;68315;48.608;11.436;2024-01-25T07:52:05;22.73;;;4.28;;
78916;SDS011;68315;48.608;11.436;2024-01-25T07:54:30;17.35;;;3.42;;
78916;SDS011;68315;48.608;11.436;2024-01-25T07:56:55;14.40;;;3.28;;
78916;SDS011;68315;48.608;11.436;2024-01-25T07:59:21;14.75;;;3.55;;
78916;SDS011;68315;48.608;11.436;2024-01-25T08:01:46;21.60;;;4.03;;
78916;SDS011;68315;48.608;11.436;2024-01-25T08:04:11;16.05;;;3.30;;
78916;SDS011;68315;48.608;11.436;2024-01-25T08:06:36;14.25;;;4.07;;
78916;SDS011;68315;48.608;11.436;2024-01-25T08:09:02;29.67;;;8.40;;
78916;SDS011;68315;48.608;11.436;2024-01-25T08:11:27;43.22;;;14.68;;
78916;SDS011;68315;48.608;11.436;2024-01-25T08:13:53;254.77;;;97.45;;
78916;SDS011;68315;48.608;11.436;2024-01-25T08:16:18;39.72;;;14.20;;
78916;SDS011;68315;48.608;11.436;2024-01-25T08:18:47;18.00;;;4.40;;
78916;SDS011;68315;48.608;11.436;2024-01-25T08:21:13;65.47;;;18.20;;
78916;SDS011;68315;48.608;11.436;2024-01-25T08:23:38;17.77;;;4.75;;
78916;SDS011;68315;48.608;11.436;2024-01-25T08:26:04;15.23;;;3.78;;
78916;SDS011;68315;48.608;11.436;2024-01-25T08:28:30;18.60;;;4.15;;
78916;SDS011;68315;48.608;11.436;2024-01-25T08:30:55;16.98;;;3.90;;
78916;SDS011;68315;48.608;11.436;2024-01-25T08:33:20;17.27;;;3.40;;
78916;SDS011;68315;48.608;11.436;2024-01-25T08:35:46;18.83;;;3.70;;
78916;SDS011;68315;48.608;11.436;2024-01-25T08:38:11;18.63;;;4.15;;
78916;SDS011;68315;48.608;11.436;2024-01-25T08:40:36;18.48;;;4.10;;
78916;SDS011;68315;48.608;11.436;2024-01-25T08:43:01;27.42;;;6.53;;
78916;SDS011;68315;48.608;11.436;2024-01-25T08:45:26;21.73;;;4.35;;
78916;SDS011;68315;48.608;11.436;2024-01-25T08:47:52;19.83;;;4.15;;
78916;SDS011;68315;48.608;11.436;2024-01-25T08:50:17;18.85;;;3.90;;
78916;SDS011;68315;48.608;11.436;2024-01-25T08:52:42;17.27;;;4.10;;
78916;SDS011;68315;48.608;11.436;2024-01-25T08:55:08;22.88;;;3.85;;
78916;SDS011;68315;48.608;11.436;2024-01-25T08:57:34;18.75;;;3.83;;
78916;SDS011;68315;48.608;11.436;2024-01-25T09:00:00;20.00;;;4.03;;
78916;SDS011;68315;48.608;11.436;2024-01-25T09:02:26;14.35;;;3.60;;
78916;SDS011;68315;48.608;11.436;2024-01-25T09:04:52;21.58;;;4.30;;
78916;SDS011;68315;48.608;11.436;2024-01-25T09:07:18;18.60;;;4.40;;
78916;SDS011;68315;48.608;11.436;2024-01-25T09:09:47;22.45;;;5.00;;
78916;SDS011;68315;48.608;11.436;2024-01-25T09:12:13;22.23;;;3.70;;
78916;SDS011;68315;48.608;11.436;2024-01-25T09:14:39;14.18;;;3.83;;
78916;SDS011;68315;48.608;11.436;2024-01-25T09:17:04;16.67;;;4.32;;
78916;SDS011;68315;48.608;11.436;2024-01-25T09:19:30;13.73;;;3.75;;
78916;SDS011;68315;48.608;11.436;2024-01-25T09:21:55;17.65;;;3.90;;
78916;SDS011;68315;48.608;11.436;2024-01-25T09:24:21;19.10;;;4.22;;
78916;SDS011;68315;48.608;11.436;2024-01-25T09:26:47;19.67;;;4.35;;
78916;SDS011;68315;48.608;11.436;2024-01-25T09:29:12;20.40;;;4.13;;
78916;SDS011;68315;48.608;11.436;2024-01-25T09:31:37;18.27;;;4.57;;
78916;SDS011;68315;48.608;11.436;2024-01-25T09:34:02;22.20;;;4.80;;
78916;SDS011;68315;48.608;11.436;2024-01-25T09:36:28;17.60;;;4.40;;
78916;SDS011;68315;48.608;11.436;2024-01-25T09:38:53;17.88;;;4.30;;
78916;SDS011;68315;48.608;11.436;2024-01-25T09:41:18;16.60;;;4.82;;
78916;SDS011;68315;48.608;11.436;2024-01-25T09:43:43;16.02;;;4.10;;
78916;SDS011;68315;48.608;11.436;2024-01-25T09:46:09;18.25;;;4.18;;
78916;SDS011;68315;48.608;11.436;2024-01-25T09:48:38;18.15;;;4.35;;
78916;SDS011;68315;48.608;11.436;2024-01-25T09:51:05;15.38;;;4.50;;
78916;SDS011;68315;48.608;11.436;2024-01-25T09:53:31;20.02;;;5.50;;
78916;SDS011;68315;48.608;11.436;2024-01-25T10:01:02;11.73;;;4.57;;
78916;SDS011;68315;48.608;11.436;2024-01-25T10:03:27;26.83;;;6.07;;
78916;SDS011;68315;48.608;11.436;2024-01-25T10:05:52;26.17;;;8.40;;
78916;SDS011;68315;48.608;11.436;2024-01-25T10:08:17;17.55;;;5.30;;
78916;SDS011;68315;48.608;11.436;2024-01-25T10:10:45;16.35;;;5.35;;
78916;SDS011;68315;48.608;11.436;2024-01-25T10:13:13;18.33;;;4.38;;
78916;SDS011;68315;48.608;11.436;2024-01-25T10:15:38;12.63;;;3.45;;
78916;SDS011;68315;48.608;11.436;2024-01-25T10:18:06;17.00;;;3.78;;
78916;SDS011;68315;48.608;11.436;2024-01-25T10:20:37;16.15;;;4.35;;
78916;SDS011;68315;48.608;11.436;2024-01-25T10:23:03;17.00;;;3.75;;
78916;SDS011;68315;48.608;11.436;2024-01-25T10:25:28;14.80;;;3.35;;
78916;SDS011;68315;48.608;11.436;2024-01-25T10:27:53;16.52;;;3.58;;
78916;SDS011;68315;48.608;11.436;2024-01-25T10:30:18;14.38;;;3.22;;
78916;SDS011;68315;48.608;11.436;2024-01-25T10:32:44;16.38;;;3.45;;
78916;SDS011;68315;48.608;11.436;2024-01-25T10:35:11;12.27;;;3.38;;
78916;SDS011;68315;48.608;11.436;2024-01-25T10:37:37;14.70;;;3.63;;
78916;SDS011;68315;48.608;11.436;2024-01-25T10:40:05;16.38;;;3.97;;
78916;SDS011;68315;48.608;11.436;2024-01-25T10:42:32;15.70;;;3.97;;
78916;SDS011;68315;48.608;11.436;2024-01-25T10:44:58;14.50;;;3.97;;
78916;SDS011;68315;48.608;11.436;2024-01-25T10:47:23;14.68;;;3.53;;
78916;SDS011;68315;48.608;11.436;2024-01-25T10:49:49;17.17;;;3.78;;
78916;SDS011;68315;48.608;11.436;2024-01-25T10:52:14;13.68;;;3.92;;
78916;SDS011;68315;48.608;11.436;2024-01-25T10:54:40;19.70;;;3.92;;
78916;SDS011;68315;48.608;11.436;2024-01-25T10:57:05;14.93;;;4.10;;
78916;SDS011;68315;48.608;11.436;2024-01-25T10:59:31;16.60;;;3.92;;
78916;SDS011;68315;48.608;11.436;2024-01-25T11:01:56;14.35;;;3.67;;
78916;SDS011;68315;48.608;11.436;2024-01-25T11:04:21;14.60;;;3.58;;
78916;SDS011;68315;48.608;11.436;2024-01-25T11:06:47;14.73;;;3.90;;
78916;SDS011;68315;48.608;11.436;2024-01-25T11:09:16;15.55;;;3.45;;
78916;SDS011;68315;48.608;11.436;2024-01-25T11:11:44;14.98;;;4.25;;
78916;SDS011;68315;48.608;11.436;2024-01-25T11:14:13;14.73;;;3.22;;
78916;SDS011;68315;48.608;11.436;2024-01-25T11:16:39;17.33;;;3.47;;
78916;SDS011;68315;48.608;11.436;2024-01-25T11:19:15;14.23;;;2.97;;
78916;SDS011;68315;48.608;11.436;2024-01-25T11:21:41;20.95;;;3.83;;
78916;SDS011;68315;48.608;11.436;2024-01-25T11:24:12;10.90;;;3.30;;
78916;SDS011;68315;48.608;11.436;2024-01-25T11:26:37;14.32;;;3.50;;
78916;SDS011;68315;48.608;11.436;2024-01-25T11:29:02;15.30;;;3.28;;
78916;SDS011;68315;48.608;11.436;2024-01-25T11:31:28;18.98;;;3.95;;
78916;SDS011;68315;48.608;11.436;2024-01-25T11:34:00;16.60;;;3.00;;
78916;SDS011;68315;48.608;11.436;2024-01-25T11:36:26;14.48;;;3.28;;
78916;SDS011;68315;48.608;11.436;2024-01-25T11:38:52;10.60;;;3.35;;
78916;SDS011;68315;48.608;11.436;2024-01-25T11:41:18;14.05;;;3.75;;
78916;SDS011;68315;48.608;11.436;2024-01-25T11:43:43;16.02;;;3.83;;
78916;SDS011;68315;48.608;11.436;2024-01-25T11:46:08;15.30;;;2.88;;
78916;SDS011;68315;48.608;11.436;2024-01-25T11:48:38;17.13;;;3.33;;
78916;SDS011;68315;48.608;11.436;2024-01-25T11:51:03;12.48;;;3.10;;
78916;SDS011;68315;48.608;11.436;2024-01-25T11:53:29;17.10;;;4.00;;
78916;SDS011;68315;48.608;11.436;2024-01-25T11:55:54;11.15;;;3.58;;
78916;SDS011;68315;48.608;11.436;2024-01-25T11:58:20;15.48;;;3.85;;
78916;SDS011;68315;48.608;11.436;2024-01-25T12:00:46;14.73;;;3.72;;
78916;SDS011;68315;48.608;11.436;2024-01-25T12:03:11;10.45;;;3.25;;
78916;SDS011;68315;48.608;11.436;2024-01-25T12:05:39;12.43;;;3.03;;
78916;SDS011;68315;48.608;11.436;2024-01-25T12:08:12;12.02;;;3.28;;
78916;SDS011;68315;48.608;11.436;2024-01-25T12:10:38;12.57;;;2.70;;
78916;SDS011;68315;48.608;11.436;2024-01-25T12:13:05;14.50;;;3.70;;
78916;SDS011;68315;48.608;11.436;2024-01-25T12:15:32;14.85;;;3.30;;
78916;SDS011;68315;48.608;11.436;2024-01-25T12:17:58;10.85;;;3.47;;
78916;SDS011;68315;48.608;11.436;2024-01-25T12:20:23;18.13;;;3.72;;
78916;SDS011;68315;48.608;11.436;2024-01-25T12:22:49;13.05;;;2.63;;
78916;SDS011;68315;48.608;11.436;2024-01-25T12:25:14;14.48;;;4.18;;
78916;SDS011;68315;48.608;11.436;2024-01-25T12:27:40;19.83;;;3.65;;
78916;SDS011;68315;48.608;11.436;2024-01-25T12:30:06;12.82;;;3.17;;
78916;SDS011;68315;48.608;11.436;2024-01-25T12:32:33;13.55;;;3.80;;
78916;SDS011;68315;48.608;11.436;2024-01-25T12:34:59;15.75;;;3.20;;
78916;SDS011;68315;48.608;11.436;2024-01-25T12:37:26;13.80;;;3.40;;
78916;SDS011;68315;48.608;11.436;2024-01-25T12:39:51;20.88;;;4.00;;
78916;SDS011;68315;48.608;11.436;2024-01-25T12:42:18;14.88;;;4.25;;
78916;SDS011;68315;48.608;11.436;2024-01-25T12:44:44;14.80;;;2.92;;
78916;SDS011;68315;48.608;11.436;2024-01-25T12:47:10;13.32;;;3.53;;
78916;SDS011;68315;48.608;11.436;2024-01-25T12:49:37;12.90;;;3.38;;
78916;SDS011;68315;48.608;11.436;2024-01-25T12:52:02;19.42;;;3.97;;
78916;SDS011;68315;48.608;11.436;2024-01-25T12:54:28;16.58;;;3.92;;
78916;SDS011;68315;48.608;11.436;2024-01-25T12:56:53;13.35;;;3.33;;
78916;SDS011;68315;48.608;11.436;2024-01-25T12:59:19;19.58;;;3.75;;
78916;SDS011;68315;48.608;11.436;2024-01-25T13:01:44;12.20;;;3.20;;
78916;SDS011;68315;48.608;11.436;2024-01-25T13:04:09;13.13;;;3.30;;
78916;SDS011;68315;48.608;11.436;2024-01-25T13:06:34;12.02;;;3.55;;
78916;SDS011;68315;48.608;11.436;2024-01-25T13:09:00;17.25;;;3.80;;
78916;SDS011;68315;48.608;11.436;2024-01-25T13:11:25;13.50;;;3.88;;
78916;SDS011;68315;48.608;11.436;2024-01-25T13:13:50;14.40;;;3.30;;
78916;SDS011;68315;48.608;11.436;2024-01-25T13:16:16;12.88;;;3.20;;
78916;SDS011;68315;48.608;11.436;2024-01-25T13:18:42;17.83;;;3.80;;
78916;SDS011;68315;48.608;11.436;2024-01-25T13:21:07;18.00;;;3.78;;
78916;SDS011;68315;48.608;11.436;2024-01-25T13:23:32;16.40;;;3.55;;
78916;SDS011;68315;48.608;11.436;2024-01-25T13:25:57;13.68;;;3.50;;
78916;SDS011;68315;48.608;11.436;2024-01-25T13:28:23;13.63;;;3.60;;
78916;SDS011;68315;48.608;11.436;2024-01-25T13:30:48;13.93;;;3.42;;
78916;SDS011;68315;48.608;11.436;2024-01-25T13:33:13;14.75;;;4.30;;
78916;SDS011;68315;48.608;11.436;2024-01-25T13:35:38;18.67;;;5.60;;
78916;SDS011;68315;48.608;11.436;2024-01-25T13:38:04;15.88;;;4.55;;
78916;SDS011;68315;48.608;11.436;2024-01-25T13:40:29;17.20;;;5.13;;
78916;SDS011;68315;48.608;11.436;2024-01-25T13:42:54;71.07;;;25.48;;
78916;SDS011;68315;48.608;11.436;2024-01-25T13:45:20;75.45;;;32.08;;
78916;SDS011;68315;48.608;11.436;2024-01-25T13:47:45;114.38;;;48.70;;
78916;SDS011;68315;48.608;11.436;2024-01-25T13:50:11;36.10;;;16.38;;
78916;SDS011;68315;48.608;11.436;2024-01-25T13:52:36;62.95;;;34.13;;
78916;SDS011;68315;48.608;11.436;2024-01-25T13:55:01;49.22;;;24.45;;
78916;SDS011;68315;48.608;11.436;2024-01-25T13:57:26;28.45;;;12.02;;
78916;SDS011;68315;48.608;11.436;2024-01-25T13:59:52;47.75;;;26.75;;
78916;SDS011;68315;48.608;11.436;2024-01-25T14:02:17;29.00;;;16.50;;
78916;SDS011;68315;48.608;11.436;2024-01-25T14:04:42;16.77;;;6.30;;
78916;SDS011;68315;48.608;11.436;2024-01-25T14:07:07;14.65;;;4.53;;
78916;SDS011;68315;48.608;11.436;2024-01-25T14:09:32;13.40;;;4.70;;
78916;SDS011;68315;48.608;11.436;2024-01-25T14:11:58;16.45;;;3.63;;
78916;SDS011;68315;48.608;11.436;2024-01-25T14:14:23;16.00;;;3.90;;